Szakal, Steve
United StatesManBorn 19782014 – 2026Runner id 600510
Events
41
35 race dates
Best pace
10.563
km/h · 2017
Best finish
8th
of 168 · 2019
Distance raced
3,395
km · splits not double-counted
Pace over time
km/h · higher is faster
Pace over time: 35 races and 6 splits from 2014 to 2026, ranging from 3.82 to 10.76 kilometres per hour, where higher is faster. A second, age-graded series is drawn above it; the gap between the two is the age credit.
- Actual pace
- Age-graded pace
- Split of a race already plotted
Results
| Date | Event | Distance | Result | Pace km/h | Placing |
|---|---|---|---|---|---|
| 2014-07-19 | 24h | 95.305 km | 3.971 | 65/140 | |
| 2015-07-18 | Lone Ranger 24 hr Urban UltraUnited States | 24h | 108.920 km | 4.538 | 32/128 |
| 2017-05-13 | 24h | 115.200 km | 4.800 | 17/37 | |
| 2017-05-13 | Dawn to Dusk to Dawn 24 Hour - 100km SplitUnited StatesIAU SilverSplit of a longer race in this career; not counted again in the distance total | 100km | 13:08:23 h | 7.611 | 11/23 |
| 2017-05-13 | Dawn to Dusk to Dawn 24 Hour - 50mi SplitUnited StatesIAU SilverSplit of a longer race in this career; not counted again in the distance total | 50mi | 10:05:41 h | 7.971 | 12/28 |
| 2017-05-13 | Dawn to Dusk to Dawn 24 Hour - 50km SplitUnited StatesIAU SilverSplit of a longer race in this career; not counted again in the distance total | 50km | 5:49:19 h | 8.588 | 15/37 |
| 2017-09-16 | 50km | 5:09:05 h | 9.706 | 15/156 | |
| 2017-12-09 | Gorge Gambler 50KUnited States | 50km | 4:44:00 h | 10.563 | 2/8 |
| 2018-03-24 | 40mi | 9:06:30 h | 7.068 | 10/34 | |
| 2018-03-31 | 50mi | 8:49:51 h | 9.112 | 9/69 | |
| 2018-05-12 | 24h | 128.799 km | 5.367 | 17/37 | |
| 2018-06-02 | 100km | 17:02:12 h | 5.870 | 53/100 | |
| 2018-09-02 | 50km | 8:08:39 h | 6.139 | 91/421 | |
| 2018-09-15 | 50km | 4:57:33 h | 10.082 | 8/150 | |
| 2018-10-06 | 100mi | 24:58:34 h | 6.444 | 9/70 | |
| 2019-03-02 | 40mi | 7:03:17 h | 9.125 | 5/54 | |
| 2019-03-23 | 40mi | 8:45:25 h | 7.351 | 6/31 | |
| 2019-04-20 | 50km | 5:35:13 h | 8.949 | 23/267 | |
| 2019-06-01 | 100km | 14:52:35 h | 6.722 | 17/97 | |
| 2019-07-20 | 50km | 8:28:25 h | 5.901 | 71/229 | |
| 2019-08-10 | 100mi | 29:02:49 h | 5.540 | 29/133 | |
| 2019-09-14 | Boulder Field 100 - 50 km Ultra RunUnited States | 50km | 5:07:38 h | 9.752 | 8/168 |
| 2019-10-06 | 100km | 16:08:00 h | 6.198 | 7/27 | |
| 2021-04-24 | 50km | 6:05:20 h | 8.212 | 31/214 | |
| 2021-07-03 | 24h | 105.292 km | 4.387 | 16/30 | |
| 2021-09-11 | 100mi | 31:59:13 h | 5.031 | 59/116 | |
| 2022-03-05 | 40mi | 7:22:30 h | 8.729 | 15/86 | |
| 2022-04-09 | 24h | 91.732 km | 3.822 | 7/10 | |
| 2022-08-13 | 100mi | 30:34:57 h | 5.262 | 47/121 | |
| 2023-05-13 | 12h | 87.280 km | 7.273 | 4/5 | |
| 2023-05-13 | Dawn to Dusk to Dawn 12 Hour - 50mi SplitUnited StatesIAU BronzeSplit of a longer race in this career; not counted again in the distance total*Mount Royal, NJ | 50mi | 10:51:46 h | 7.408 | 4/4 |
| 2023-05-13 | Dawn to Dusk to Dawn 12 Hour - 50km SplitUnited StatesIAU BronzeSplit of a longer race in this career; not counted again in the distance total*Mount Royal, NJ | 50km | 6:27:19 h | 7.746 | 4/4 |
| 2023-08-05 | 12h | 102.596 km | 8.550 | 5/63 | |
| 2023-09-09 | 100mi | 20:25:48 h | 7.877 | 2/35 | |
| 2023-12-17 | 8h | 66.388 km | 8.299 | 23/84 | |
| 2024-05-11 | 12h | 97.810 km | 8.151 | 2/9 | |
| 2024-08-03 | 100mi | 22:43:08 h | 7.084 | 3/19 | |
| 2025-05-10 | 12h | 96.800 km | 8.067 | 2/6 | |
| 2025-05-10 | Dawn to Dusk to Dawn 24 Hour - 50mi SplitUnited StatesIAU BronzeSplit of a longer race in this career; not counted again in the distance total | 50mi | 9:45:13 h | 8.250 | 15/32 |
| 2025-10-12 | 50km | 7:28:32 h | 6.688 | 13/46 | |
| 2026-04-09 | 48h | 245.304 km | 5.111 | 2/15 |